sensor_id;sensor_type;location;lat;lon;timestamp;pressure;altitude;pressure_sealevel;temperature;humidity
62038;BME280;47991;42.974;12.082;2023-02-12T00:01:12;99409.61;;;-1.29;54.52
62038;BME280;47991;42.974;12.082;2023-02-12T00:03:40;99406.20;;;-1.27;53.87
62038;BME280;47991;42.974;12.082;2023-02-12T00:06:09;99402.70;;;-1.28;54.23
62038;BME280;47991;42.974;12.082;2023-02-12T00:08:38;99402.55;;;-1.31;55.83
62038;BME280;47991;42.974;12.082;2023-02-12T00:11:12;99404.89;;;-1.38;55.35
62038;BME280;47991;42.974;12.082;2023-02-12T00:13:40;99401.19;;;-1.43;54.79
62038;BME280;47991;42.974;12.082;2023-02-12T00:16:10;99397.58;;;-1.45;54.32
62038;BME280;47991;42.974;12.082;2023-02-12T00:18:41;99395.23;;;-1.48;55.89
62038;BME280;47991;42.974;12.082;2023-02-12T00:21:08;99397.14;;;-1.47;55.70
62038;BME280;47991;42.974;12.082;2023-02-12T00:23:37;99398.59;;;-1.46;55.31
62038;BME280;47991;42.974;12.082;2023-02-12T00:26:07;99404.60;;;-1.48;55.03
62038;BME280;47991;42.974;12.082;2023-02-12T00:28:35;99409.05;;;-1.52;55.10
62038;BME280;47991;42.974;12.082;2023-02-12T00:31:05;99412.70;;;-1.56;56.92
62038;BME280;47991;42.974;12.082;2023-02-12T00:33:32;99407.70;;;-1.63;58.05
62038;BME280;47991;42.974;12.082;2023-02-12T00:36:00;99410.76;;;-1.64;57.25
62038;BME280;47991;42.974;12.082;2023-02-12T00:38:27;99408.06;;;-1.63;56.93
62038;BME280;47991;42.974;12.082;2023-02-12T00:40:55;99404.90;;;-1.56;56.54
62038;BME280;47991;42.974;12.082;2023-02-12T00:43:23;99401.88;;;-1.50;55.67
62038;BME280;47991;42.974;12.082;2023-02-12T00:45:54;99401.54;;;-1.46;56.45
62038;BME280;47991;42.974;12.082;2023-02-12T00:48:21;99406.98;;;-1.41;56.76
62038;BME280;47991;42.974;12.082;2023-02-12T00:50:49;99410.14;;;-1.40;57.36
62038;BME280;47991;42.974;12.082;2023-02-12T00:53:18;99409.82;;;-1.43;57.20
62038;BME280;47991;42.974;12.082;2023-02-12T00:55:46;99405.48;;;-1.43;57.07
62038;BME280;47991;42.974;12.082;2023-02-12T00:58:13;99406.38;;;-1.47;57.84
62038;BME280;47991;42.974;12.082;2023-02-12T01:00:43;99408.94;;;-1.55;58.01
62038;BME280;47991;42.974;12.082;2023-02-12T01:03:10;99413.80;;;-1.59;57.55
62038;BME280;47991;42.974;12.082;2023-02-12T01:05:37;99413.33;;;-1.57;58.16
62038;BME280;47991;42.974;12.082;2023-02-12T01:08:06;99422.11;;;-1.59;57.26
62038;BME280;47991;42.974;12.082;2023-02-12T01:10:34;99421.90;;;-1.60;56.56
62038;BME280;47991;42.974;12.082;2023-02-12T01:13:02;99421.79;;;-1.62;57.56
62038;BME280;47991;42.974;12.082;2023-02-12T01:15:30;99417.17;;;-1.68;59.03
62038;BME280;47991;42.974;12.082;2023-02-12T01:17:57;99419.36;;;-1.74;57.57
62038;BME280;47991;42.974;12.082;2023-02-12T01:20:26;99420.83;;;-1.72;57.00
62038;BME280;47991;42.974;12.082;2023-02-12T01:22:54;99417.30;;;-1.70;56.84
62038;BME280;47991;42.974;12.082;2023-02-12T01:25:21;99416.33;;;-1.68;57.05
62038;BME280;47991;42.974;12.082;2023-02-12T01:27:52;99416.72;;;-1.67;56.54
62038;BME280;47991;42.974;12.082;2023-02-12T01:30:21;99410.53;;;-1.70;57.64
62038;BME280;47991;42.974;12.082;2023-02-12T01:32:51;99406.23;;;-1.76;57.70
62038;BME280;47991;42.974;12.082;2023-02-12T01:35:20;99406.18;;;-1.81;56.96
62038;BME280;47991;42.974;12.082;2023-02-12T01:37:47;99406.30;;;-1.86;57.88
62038;BME280;47991;42.974;12.082;2023-02-12T01:40:16;99404.69;;;-1.98;58.71
62038;BME280;47991;42.974;12.082;2023-02-12T01:42:45;99400.48;;;-2.06;58.35
62038;BME280;47991;42.974;12.082;2023-02-12T01:47:42;99394.93;;;-2.10;58.96
62038;BME280;47991;42.974;12.082;2023-02-12T01:50:14;99391.30;;;-2.06;57.97
62038;BME280;47991;42.974;12.082;2023-02-12T01:52:50;99389.27;;;-2.05;57.35
62038;BME280;47991;42.974;12.082;2023-02-12T01:55:20;99394.36;;;-2.11;59.13
62038;BME280;47991;42.974;12.082;2023-02-12T01:57:48;99390.68;;;-2.19;60.18
62038;BME280;47991;42.974;12.082;2023-02-12T02:00:21;99385.95;;;-2.24;59.52
62038;BME280;47991;42.974;12.082;2023-02-12T02:02:53;99383.95;;;-2.30;58.72
62038;BME280;47991;42.974;12.082;2023-02-12T02:05:49;99383.36;;;-2.34;58.71
62038;BME280;47991;42.974;12.082;2023-02-12T02:08:20;99389.48;;;-2.37;58.20
62038;BME280;47991;42.974;12.082;2023-02-12T02:10:48;99386.46;;;-2.35;57.91
62038;BME280;47991;42.974;12.082;2023-02-12T02:13:16;99381.47;;;-2.34;58.04
62038;BME280;47991;42.974;12.082;2023-02-12T02:16:19;99382.29;;;-2.32;60.21
62038;BME280;47991;42.974;12.082;2023-02-12T02:18:52;99380.80;;;-2.27;58.46
62038;BME280;47991;42.974;12.082;2023-02-12T02:30:57;99369.39;;;-2.15;58.01
62038;BME280;47991;42.974;12.082;2023-02-12T02:36:30;99361.72;;;-2.16;58.91
62038;BME280;47991;42.974;12.082;2023-02-12T02:39:18;99356.00;;;-2.09;58.01
62038;BME280;47991;42.974;12.082;2023-02-12T02:41:58;99356.65;;;-2.06;57.76
62038;BME280;47991;42.974;12.082;2023-02-12T02:44:35;99350.55;;;-2.11;56.77
62038;BME280;47991;42.974;12.082;2023-02-12T02:47:06;99346.21;;;-2.22;57.98
62038;BME280;47991;42.974;12.082;2023-02-12T02:49:46;99345.83;;;-2.30;57.39
62038;BME280;47991;42.974;12.082;2023-02-12T02:52:21;99346.71;;;-2.37;57.32
62038;BME280;47991;42.974;12.082;2023-02-12T02:54:56;99347.23;;;-2.37;57.72
62038;BME280;47991;42.974;12.082;2023-02-12T02:57:54;99341.69;;;-2.37;57.57
62038;BME280;47991;42.974;12.082;2023-02-12T03:00:37;99334.22;;;-2.40;58.69
62038;BME280;47991;42.974;12.082;2023-02-12T03:06:04;99334.60;;;-2.51;59.55
62038;BME280;47991;42.974;12.082;2023-02-12T03:08:36;99330.71;;;-2.49;57.27
62038;BME280;47991;42.974;12.082;2023-02-12T03:11:23;99329.20;;;-2.55;58.89
62038;BME280;47991;42.974;12.082;2023-02-12T03:16:29;99334.56;;;-2.62;59.58
62038;BME280;47991;42.974;12.082;2023-02-12T03:21:59;99328.99;;;-2.59;59.18
62038;BME280;47991;42.974;12.082;2023-02-12T03:27:41;99324.91;;;-2.61;58.68
62038;BME280;47991;42.974;12.082;2023-02-12T03:30:10;99326.48;;;-2.57;58.84
62038;BME280;47991;42.974;12.082;2023-02-12T03:32:59;99324.05;;;-2.57;59.85
62038;BME280;47991;42.974;12.082;2023-02-12T03:35:58;99322.67;;;-2.54;58.40
62038;BME280;47991;42.974;12.082;2023-02-12T03:38:37;99320.25;;;-2.47;58.79
62038;BME280;47991;42.974;12.082;2023-02-12T03:41:17;99330.42;;;-2.48;59.29
62038;BME280;47991;42.974;12.082;2023-02-12T03:43:54;99332.66;;;-2.48;58.40
62038;BME280;47991;42.974;12.082;2023-02-12T03:47:01;99335.48;;;-2.50;57.69
62038;BME280;47991;42.974;12.082;2023-02-12T03:49:20;99332.33;;;-2.51;58.01
62038;BME280;47991;42.974;12.082;2023-02-12T03:51:50;99327.67;;;-2.47;57.98
62038;BME280;47991;42.974;12.082;2023-02-12T03:54:19;99333.65;;;-2.42;58.48
62038;BME280;47991;42.974;12.082;2023-02-12T03:57:04;99333.41;;;-2.39;59.63
62038;BME280;47991;42.974;12.082;2023-02-12T03:59:35;99333.21;;;-2.40;58.51
62038;BME280;47991;42.974;12.082;2023-02-12T04:02:04;99329.79;;;-2.39;58.58
62038;BME280;47991;42.974;12.082;2023-02-12T04:04:32;99331.12;;;-2.37;58.41
62038;BME280;47991;42.974;12.082;2023-02-12T04:07:01;99336.85;;;-2.33;58.51
62038;BME280;47991;42.974;12.082;2023-02-12T04:09:30;99333.99;;;-2.27;58.46
62038;BME280;47991;42.974;12.082;2023-02-12T04:12:20;99335.30;;;-2.25;58.47
62038;BME280;47991;42.974;12.082;2023-02-12T04:18:14;99336.64;;;-2.22;58.81
62038;BME280;47991;42.974;12.082;2023-02-12T04:21:21;99338.17;;;-2.23;59.04
62038;BME280;47991;42.974;12.082;2023-02-12T04:31:48;99331.14;;;-2.26;58.71
62038;BME280;47991;42.974;12.082;2023-02-12T04:37:23;99323.03;;;-2.43;60.21
62038;BME280;47991;42.974;12.082;2023-02-12T04:39:52;99326.05;;;-2.45;58.96
62038;BME280;47991;42.974;12.082;2023-02-12T04:42:20;99323.63;;;-2.48;59.61
62038;BME280;47991;42.974;12.082;2023-02-12T04:44:48;99320.30;;;-2.53;60.34
62038;BME280;47991;42.974;12.082;2023-02-12T04:47:16;99324.17;;;-2.55;59.81
62038;BME280;47991;42.974;12.082;2023-02-12T04:49:43;99325.59;;;-2.58;59.50
62038;BME280;47991;42.974;12.082;2023-02-12T04:52:11;99328.80;;;-2.60;59.60
62038;BME280;47991;42.974;12.082;2023-02-12T04:54:38;99331.87;;;-2.64;60.50
62038;BME280;47991;42.974;12.082;2023-02-12T04:57:05;99327.91;;;-2.71;60.20
62038;BME280;47991;42.974;12.082;2023-02-12T04:59:33;99322.30;;;-2.76;60.16
62038;BME280;47991;42.974;12.082;2023-02-12T05:02:01;99324.23;;;-2.79;59.71
62038;BME280;47991;42.974;12.082;2023-02-12T05:04:29;99327.43;;;-2.84;60.06
62038;BME280;47991;42.974;12.082;2023-02-12T05:06:56;99329.95;;;-2.89;60.63
62038;BME280;47991;42.974;12.082;2023-02-12T05:09:25;99334.06;;;-2.90;59.96
62038;BME280;47991;42.974;12.082;2023-02-12T05:11:52;99332.88;;;-2.86;59.20
62038;BME280;47991;42.974;12.082;2023-02-12T05:14:24;99331.88;;;-2.81;60.04
62038;BME280;47991;42.974;12.082;2023-02-12T05:16:53;99325.08;;;-2.83;60.74
62038;BME280;47991;42.974;12.082;2023-02-12T05:19:20;99327.24;;;-2.88;61.45
62038;BME280;47991;42.974;12.082;2023-02-12T05:21:50;99322.90;;;-2.92;61.16
62038;BME280;47991;42.974;12.082;2023-02-12T05:24:17;99319.35;;;-2.97;61.41
62038;BME280;47991;42.974;12.082;2023-02-12T05:26:49;99314.77;;;-3.02;60.48
62038;BME280;47991;42.974;12.082;2023-02-12T05:29:16;99312.02;;;-3.02;60.12
62038;BME280;47991;42.974;12.082;2023-02-12T05:31:44;99309.27;;;-3.02;59.87
62038;BME280;47991;42.974;12.082;2023-02-12T05:34:12;99309.92;;;-3.06;60.82
62038;BME280;47991;42.974;12.082;2023-02-12T05:36:40;99309.05;;;-3.13;61.39
62038;BME280;47991;42.974;12.082;2023-02-12T05:39:09;99315.29;;;-3.16;61.04
62038;BME280;47991;42.974;12.082;2023-02-12T05:41:38;99315.65;;;-3.19;60.76
62038;BME280;47991;42.974;12.082;2023-02-12T05:44:06;99311.58;;;-3.21;61.01
62038;BME280;47991;42.974;12.082;2023-02-12T05:46:33;99314.58;;;-3.20;61.65
62038;BME280;47991;42.974;12.082;2023-02-12T05:49:00;99318.22;;;-3.20;61.45
62038;BME280;47991;42.974;12.082;2023-02-12T05:51:28;99319.78;;;-3.23;61.85
62038;BME280;47991;42.974;12.082;2023-02-12T05:53:59;99324.72;;;-3.28;61.60
62038;BME280;47991;42.974;12.082;2023-02-12T05:56:41;99330.36;;;-3.29;61.17
62038;BME280;47991;42.974;12.082;2023-02-12T05:59:19;99333.57;;;-3.27;61.50
62038;BME280;47991;42.974;12.082;2023-02-12T06:01:49;99339.20;;;-3.25;60.79
62038;BME280;47991;42.974;12.082;2023-02-12T06:04:26;99341.84;;;-3.28;61.48
62038;BME280;47991;42.974;12.082;2023-02-12T06:06:56;99338.65;;;-3.19;61.25
62038;BME280;47991;42.974;12.082;2023-02-12T06:09:23;99339.44;;;-3.10;61.37
62038;BME280;47991;42.974;12.082;2023-02-12T06:11:51;99338.99;;;-3.06;61.85
62038;BME280;47991;42.974;12.082;2023-02-12T06:14:19;99333.12;;;-3.02;61.78
62038;BME280;47991;42.974;12.082;2023-02-12T06:16:49;99332.63;;;-3.02;61.50
62038;BME280;47991;42.974;12.082;2023-02-12T06:19:18;99332.61;;;-3.02;61.60
62038;BME280;47991;42.974;12.082;2023-02-12T06:21:46;99334.90;;;-3.04;62.03
62038;BME280;47991;42.974;12.082;2023-02-12T06:24:15;99335.55;;;-3.05;61.76
62038;BME280;47991;42.974;12.082;2023-02-12T10:26:46;99316.44;;;11.78;36.17
62038;BME280;47991;42.974;12.082;2023-02-12T10:29:22;99316.98;;;11.27;36.78
62038;BME280;47991;42.974;12.082;2023-02-12T10:31:59;99319.93;;;11.05;37.21
62038;BME280;47991;42.974;12.082;2023-02-12T10:34:33;99314.73;;;10.83;37.39
62038;BME280;47991;42.974;12.082;2023-02-12T10:39:42;99300.64;;;10.72;36.53
62038;BME280;47991;42.974;12.082;2023-02-12T10:42:15;99295.19;;;10.64;36.66
62038;BME280;47991;42.974;12.082;2023-02-12T10:44:45;99291.98;;;10.67;37.17
62038;BME280;47991;42.974;12.082;2023-02-12T10:47:21;99293.77;;;10.66;37.06
62038;BME280;47991;42.974;12.082;2023-02-12T10:50:00;99295.11;;;10.80;37.20
62038;BME280;47991;42.974;12.082;2023-02-12T10:52:57;99299.71;;;10.81;37.19
62038;BME280;47991;42.974;12.082;2023-02-12T10:55:34;99297.41;;;10.84;37.22
62038;BME280;47991;42.974;12.082;2023-02-12T10:58:04;99295.12;;;10.80;37.47
62038;BME280;47991;42.974;12.082;2023-02-12T11:00:43;99292.58;;;10.93;37.39
62038;BME280;47991;42.974;12.082;2023-02-12T11:05:43;99285.94;;;10.77;37.43
62038;BME280;47991;42.974;12.082;2023-02-12T11:08:35;99281.52;;;10.77;37.98
62038;BME280;47991;42.974;12.082;2023-02-12T11:11:10;99284.95;;;10.95;37.24
62038;BME280;47991;42.974;12.082;2023-02-12T11:13:44;99283.37;;;10.93;36.55
62038;BME280;47991;42.974;12.082;2023-02-12T11:19:02;99283.42;;;10.85;37.12
62038;BME280;47991;42.974;12.082;2023-02-12T11:21:31;99286.75;;;10.91;37.61
62038;BME280;47991;42.974;12.082;2023-02-12T11:24:30;99285.88;;;10.89;37.91
62038;BME280;47991;42.974;12.082;2023-02-12T11:29:47;99280.46;;;11.07;38.09
62038;BME280;47991;42.974;12.082;2023-02-12T11:32:30;99275.27;;;11.19;37.71
62038;BME280;47991;42.974;12.082;2023-02-12T11:35:20;99273.17;;;11.12;37.89
62038;BME280;47991;42.974;12.082;2023-02-12T11:38:02;99275.11;;;11.15;37.02
62038;BME280;47991;42.974;12.082;2023-02-12T11:40:33;99277.81;;;11.57;36.06
62038;BME280;47991;42.974;12.082;2023-02-12T11:43:05;99277.30;;;12.15;34.97
62038;BME280;47991;42.974;12.082;2023-02-12T11:45:41;99269.02;;;11.91;35.23
62038;BME280;47991;42.974;12.082;2023-02-12T11:50:53;99264.32;;;11.61;34.78
62038;BME280;47991;42.974;12.082;2023-02-12T11:53:41;99259.16;;;11.41;35.12
62038;BME280;47991;42.974;12.082;2023-02-12T11:56:11;99255.49;;;11.57;35.74
62038;BME280;47991;42.974;12.082;2023-02-12T11:58:40;99248.00;;;11.62;35.25
62038;BME280;47991;42.974;12.082;2023-02-12T12:01:29;99247.26;;;11.47;34.99
62038;BME280;47991;42.974;12.082;2023-02-12T12:04:07;99243.70;;;11.47;34.54
62038;BME280;47991;42.974;12.082;2023-02-12T12:06:43;99235.34;;;11.52;34.69
62038;BME280;47991;42.974;12.082;2023-02-12T12:09:23;99231.15;;;11.46;34.96
62038;BME280;47991;42.974;12.082;2023-02-12T12:12:15;99229.41;;;11.42;35.06
62038;BME280;47991;42.974;12.082;2023-02-12T12:15:04;99229.96;;;11.39;35.42
62038;BME280;47991;42.974;12.082;2023-02-12T12:17:59;99227.05;;;11.28;35.12
62038;BME280;47991;42.974;12.082;2023-02-12T12:20:55;99226.57;;;11.44;35.22
62038;BME280;47991;42.974;12.082;2023-02-12T12:23:34;99221.83;;;11.57;36.10
62038;BME280;47991;42.974;12.082;2023-02-12T12:26:07;99217.96;;;11.72;35.46
62038;BME280;47991;42.974;12.082;2023-02-12T12:28:50;99213.92;;;11.69;34.98
62038;BME280;47991;42.974;12.082;2023-02-12T12:31:38;99212.10;;;11.74;35.25
62038;BME280;47991;42.974;12.082;2023-02-12T12:34:14;99199.08;;;11.66;34.58
62038;BME280;47991;42.974;12.082;2023-02-12T12:37:07;99199.67;;;11.60;34.61
62038;BME280;47991;42.974;12.082;2023-02-12T12:40:06;99190.48;;;11.60;35.22
62038;BME280;47991;42.974;12.082;2023-02-12T12:48:42;99183.75;;;11.59;35.05
62038;BME280;47991;42.974;12.082;2023-02-12T12:54:28;99183.31;;;11.48;34.70
62038;BME280;47991;42.974;12.082;2023-02-12T13:03:00;99184.38;;;11.66;33.94
62038;BME280;47991;42.974;12.082;2023-02-12T13:17:22;99176.55;;;11.70;34.14
62038;BME280;47991;42.974;12.082;2023-02-12T13:20:19;99176.59;;;11.65;34.40
62038;BME280;47991;42.974;12.082;2023-02-12T13:23:12;99178.06;;;11.59;33.96
62038;BME280;47991;42.974;12.082;2023-02-12T13:25:48;99178.38;;;11.66;33.83
62038;BME280;47991;42.974;12.082;2023-02-12T13:28:48;99175.17;;;11.65;34.22
62038;BME280;47991;42.974;12.082;2023-02-12T13:31:21;99173.35;;;11.70;34.08
62038;BME280;47991;42.974;12.082;2023-02-12T13:33:57;99175.25;;;11.74;34.26
62038;BME280;47991;42.974;12.082;2023-02-12T13:36:27;99174.91;;;11.74;33.92
62038;BME280;47991;42.974;12.082;2023-02-12T13:39:08;99170.85;;;11.73;34.46
62038;BME280;47991;42.974;12.082;2023-02-12T13:41:39;99170.80;;;11.77;35.29
62038;BME280;47991;42.974;12.082;2023-02-12T13:44:21;99170.83;;;11.74;34.91
62038;BME280;47991;42.974;12.082;2023-02-12T13:50:15;99161.41;;;11.77;36.07
62038;BME280;47991;42.974;12.082;2023-02-12T13:52:57;99158.30;;;11.87;35.17
62038;BME280;47991;42.974;12.082;2023-02-12T13:55:31;99161.04;;;11.98;35.71
62038;BME280;47991;42.974;12.082;2023-02-12T14:01:03;99154.31;;;12.11;34.75
62038;BME280;47991;42.974;12.082;2023-02-12T14:03:31;99151.42;;;12.15;35.26
62038;BME280;47991;42.974;12.082;2023-02-12T14:08:49;99147.28;;;12.21;32.87
62038;BME280;47991;42.974;12.082;2023-02-12T14:11:20;99146.24;;;12.19;32.82
62038;BME280;47991;42.974;12.082;2023-02-12T14:13:53;99140.96;;;12.16;32.94
62038;BME280;47991;42.974;12.082;2023-02-12T14:19:41;99140.84;;;12.11;32.12
62038;BME280;47991;42.974;12.082;2023-02-12T14:24:57;99137.45;;;12.27;32.43
62038;BME280;47991;42.974;12.082;2023-02-12T14:27:41;99139.10;;;12.23;32.25
62038;BME280;47991;42.974;12.082;2023-02-12T14:35:41;99139.75;;;12.27;32.63
62038;BME280;47991;42.974;12.082;2023-02-12T14:40:48;99141.70;;;12.27;32.46
62038;BME280;47991;42.974;12.082;2023-02-12T14:43:29;99151.48;;;12.24;32.64
62038;BME280;47991;42.974;12.082;2023-02-12T14:54:04;99161.77;;;11.96;32.87
62038;BME280;47991;42.974;12.082;2023-02-12T14:56:47;99164.65;;;11.92;33.40
62038;BME280;47991;42.974;12.082;2023-02-12T14:59:21;99170.86;;;11.89;33.78
62038;BME280;47991;42.974;12.082;2023-02-12T15:01:51;99170.31;;;11.89;34.39
62038;BME280;47991;42.974;12.082;2023-02-12T15:04:24;99162.15;;;11.89;34.76
62038;BME280;47991;42.974;12.082;2023-02-12T15:07:06;99159.56;;;11.84;35.21
62038;BME280;47991;42.974;12.082;2023-02-12T15:09:41;99164.04;;;11.80;35.14
62038;BME280;47991;42.974;12.082;2023-02-12T15:12:31;99168.52;;;11.75;35.37
62038;BME280;47991;42.974;12.082;2023-02-12T15:15:11;99169.48;;;11.67;34.57
62038;BME280;47991;42.974;12.082;2023-02-12T15:17:52;99167.80;;;11.58;35.16
62038;BME280;47991;42.974;12.082;2023-02-12T15:20:24;99171.45;;;11.48;35.01
62038;BME280;47991;42.974;12.082;2023-02-12T15:22:57;99174.36;;;11.38;34.98
62038;BME280;47991;42.974;12.082;2023-02-12T15:25:30;99172.72;;;11.25;34.51
62038;BME280;47991;42.974;12.082;2023-02-12T15:28:05;99173.64;;;11.20;35.09
62038;BME280;47991;42.974;12.082;2023-02-12T15:30:42;99174.71;;;11.19;35.84
62038;BME280;47991;42.974;12.082;2023-02-12T15:33:24;99174.73;;;11.16;36.24
62038;BME280;47991;42.974;12.082;2023-02-12T15:35:54;99176.02;;;11.11;36.51
62038;BME280;47991;42.974;12.082;2023-02-12T15:38:39;99176.29;;;10.99;36.04
62038;BME280;47991;42.974;12.082;2023-02-12T15:41:34;99177.92;;;10.91;36.43
62038;BME280;47991;42.974;12.082;2023-02-12T15:44:21;99179.73;;;10.85;36.14
62038;BME280;47991;42.974;12.082;2023-02-12T15:47:18;99182.30;;;10.72;36.92
62038;BME280;47991;42.974;12.082;2023-02-12T15:49:58;99178.14;;;10.61;37.32
62038;BME280;47991;42.974;12.082;2023-02-12T15:52:32;99178.89;;;10.51;37.40
62038;BME280;47991;42.974;12.082;2023-02-12T15:55:03;99178.56;;;10.44;37.37
62038;BME280;47991;42.974;12.082;2023-02-12T15:57:32;99180.36;;;10.39;37.18
62038;BME280;47991;42.974;12.082;2023-02-12T16:00:06;99185.50;;;10.35;37.15
62038;BME280;47991;42.974;12.082;2023-02-12T16:02:41;99191.53;;;10.27;37.55
62038;BME280;47991;42.974;12.082;2023-02-12T16:05:10;99196.33;;;10.21;37.67
62038;BME280;47991;42.974;12.082;2023-02-12T16:07:41;99197.94;;;10.14;37.63
62038;BME280;47991;42.974;12.082;2023-02-12T16:10:13;99199.36;;;10.08;37.89
62038;BME280;47991;42.974;12.082;2023-02-12T16:12:41;99197.11;;;10.00;38.28
62038;BME280;47991;42.974;12.082;2023-02-12T16:15:42;99204.38;;;9.85;39.15
62038;BME280;47991;42.974;12.082;2023-02-12T16:18:23;99212.55;;;9.73;38.99
62038;BME280;47991;42.974;12.082;2023-02-12T16:23:41;99221.91;;;9.50;40.29
62038;BME280;47991;42.974;12.082;2023-02-12T16:26:17;99221.05;;;9.41;40.13
62038;BME280;47991;42.974;12.082;2023-02-12T16:28:46;99215.40;;;9.31;40.87
62038;BME280;47991;42.974;12.082;2023-02-12T16:31:15;99213.98;;;9.20;41.42
62038;BME280;47991;42.974;12.082;2023-02-12T16:33:51;99219.62;;;9.11;41.39
62038;BME280;47991;42.974;12.082;2023-02-12T16:41:25;99229.61;;;8.75;40.97
62038;BME280;47991;42.974;12.082;2023-02-12T16:46:20;99235.27;;;8.37;41.97
62038;BME280;47991;42.974;12.082;2023-02-12T16:48:50;99243.54;;;8.31;41.66
62038;BME280;47991;42.974;12.082;2023-02-12T16:51:33;99251.04;;;8.19;42.00
62038;BME280;47991;42.974;12.082;2023-02-12T16:54:03;99256.78;;;8.04;41.81
62038;BME280;47991;42.974;12.082;2023-02-12T16:56:33;99264.45;;;7.92;42.02
62038;BME280;47991;42.974;12.082;2023-02-12T16:59:04;99267.02;;;7.80;42.57
62038;BME280;47991;42.974;12.082;2023-02-12T17:01:35;99268.86;;;7.65;42.38
62038;BME280;47991;42.974;12.082;2023-02-12T17:04:09;99268.62;;;7.57;42.06
62038;BME280;47991;42.974;12.082;2023-02-12T17:06:40;99271.88;;;7.46;43.86
62038;BME280;47991;42.974;12.082;2023-02-12T17:09:08;99280.95;;;7.38;43.38
62038;BME280;47991;42.974;12.082;2023-02-12T17:11:36;99286.02;;;7.34;43.41
62038;BME280;47991;42.974;12.082;2023-02-12T17:14:04;99290.66;;;7.21;42.82
62038;BME280;47991;42.974;12.082;2023-02-12T17:16:31;99300.63;;;6.99;43.23
62038;BME280;47991;42.974;12.082;2023-02-12T17:18:59;99309.06;;;6.83;43.35
62038;BME280;47991;42.974;12.082;2023-02-12T17:21:32;99314.58;;;6.73;43.69
62038;BME280;47991;42.974;12.082;2023-02-12T17:24:06;99324.14;;;6.50;44.17
62038;BME280;47991;42.974;12.082;2023-02-12T17:26:38;99324.57;;;6.30;43.74
62038;BME280;47991;42.974;12.082;2023-02-12T17:29:05;99325.59;;;6.15;44.41
62038;BME280;47991;42.974;12.082;2023-02-12T17:31:34;99328.64;;;6.07;44.15
62038;BME280;47991;42.974;12.082;2023-02-12T17:34:05;99335.55;;;6.00;44.06
62038;BME280;47991;42.974;12.082;2023-02-12T17:36:34;99338.45;;;5.86;45.10
62038;BME280;47991;42.974;12.082;2023-02-12T17:39:03;99336.06;;;5.78;45.62
62038;BME280;47991;42.974;12.082;2023-02-12T17:41:31;99334.19;;;5.71;46.03
62038;BME280;47991;42.974;12.082;2023-02-12T17:43:59;99334.03;;;5.61;45.95
62038;BME280;47991;42.974;12.082;2023-02-12T17:46:27;99345.84;;;5.54;44.80
62038;BME280;47991;42.974;12.082;2023-02-12T17:48:56;99349.86;;;5.24;44.86
62038;BME280;47991;42.974;12.082;2023-02-12T17:51:24;99354.75;;;4.95;45.46
62038;BME280;47991;42.974;12.082;2023-02-12T17:53:52;99358.66;;;4.80;46.15
62038;BME280;47991;42.974;12.082;2023-02-12T17:56:21;99364.88;;;4.76;45.86
62038;BME280;47991;42.974;12.082;2023-02-12T17:58:52;99368.38;;;4.75;45.98
62038;BME280;47991;42.974;12.082;2023-02-12T18:01:22;99369.85;;;4.71;46.88
62038;BME280;47991;42.974;12.082;2023-02-12T18:03:50;99364.86;;;4.67;47.28
62038;BME280;47991;42.974;12.082;2023-02-12T18:06:25;99368.20;;;4.59;46.45
62038;BME280;47991;42.974;12.082;2023-02-12T18:08:53;99375.77;;;4.45;46.62
62038;BME280;47991;42.974;12.082;2023-02-12T18:11:21;99376.34;;;4.31;46.20
62038;BME280;47991;42.974;12.082;2023-02-12T18:13:51;99380.20;;;4.15;46.63
62038;BME280;47991;42.974;12.082;2023-02-12T18:16:20;99383.84;;;4.14;46.59
62038;BME280;47991;42.974;12.082;2023-02-12T18:18:49;99379.84;;;4.23;45.78
62038;BME280;47991;42.974;12.082;2023-02-12T18:21:17;99381.17;;;4.20;46.70
62038;BME280;47991;42.974;12.082;2023-02-12T18:23:45;99381.14;;;4.19;46.28
62038;BME280;47991;42.974;12.082;2023-02-12T18:26:17;99383.19;;;4.08;46.95
62038;BME280;47991;42.974;12.082;2023-02-12T18:28:45;99376.24;;;3.96;46.53
62038;BME280;47991;42.974;12.082;2023-02-12T18:31:12;99374.76;;;3.92;46.46
62038;BME280;47991;42.974;12.082;2023-02-12T18:33:42;99372.42;;;3.76;46.48
62038;BME280;47991;42.974;12.082;2023-02-12T18:36:12;99372.72;;;3.53;46.49
62038;BME280;47991;42.974;12.082;2023-02-12T18:38:40;99376.29;;;3.42;47.17
62038;BME280;47991;42.974;12.082;2023-02-12T18:41:14;99383.13;;;3.36;47.36
62038;BME280;47991;42.974;12.082;2023-02-12T18:43:42;99384.81;;;3.33;47.64
62038;BME280;47991;42.974;12.082;2023-02-12T18:46:23;99388.16;;;3.41;46.87
62038;BME280;47991;42.974;12.082;2023-02-12T18:48:51;99388.70;;;3.42;48.01
62038;BME280;47991;42.974;12.082;2023-02-12T18:51:21;99390.98;;;3.42;46.79
62038;BME280;47991;42.974;12.082;2023-02-12T18:53:55;99390.46;;;3.36;46.72
62038;BME280;47991;42.974;12.082;2023-02-12T18:56:35;99393.85;;;3.18;47.48
62038;BME280;47991;42.974;12.082;2023-02-12T18:59:04;99395.95;;;3.06;48.20
62038;BME280;47991;42.974;12.082;2023-02-12T19:01:33;99392.58;;;3.03;47.89
62038;BME280;47991;42.974;12.082;2023-02-12T19:04:02;99392.97;;;3.06;47.31
62038;BME280;47991;42.974;12.082;2023-02-12T19:06:37;99391.65;;;3.08;47.29
62038;BME280;47991;42.974;12.082;2023-02-12T19:09:05;99392.61;;;3.12;47.03
62038;BME280;47991;42.974;12.082;2023-02-12T19:11:35;99394.25;;;3.20;46.60
62038;BME280;47991;42.974;12.082;2023-02-12T19:14:03;99395.46;;;3.20;46.11
62038;BME280;47991;42.974;12.082;2023-02-12T19:16:32;99403.55;;;3.09;46.67
62038;BME280;47991;42.974;12.082;2023-02-12T19:19:00;99400.33;;;3.00;47.22
62038;BME280;47991;42.974;12.082;2023-02-12T19:21:30;99395.86;;;2.96;47.03
62038;BME280;47991;42.974;12.082;2023-02-12T19:24:00;99397.44;;;2.97;47.31
62038;BME280;47991;42.974;12.082;2023-02-12T19:26:31;99395.62;;;2.94;47.16
62038;BME280;47991;42.974;12.082;2023-02-12T19:29:01;99402.36;;;2.85;46.66